Time;durP1;ratioP1;P1;durP2;ratioP2;P2;SDS_P1;SDS_P2;PMS_P1;PMS_P2;Temp;Humidity;BMP_temperature;BMP_pressure;BME280_temperature;BME280_humidity;BME280_pressure;Samples;Min_cycle;Max_cycle;Signal;HPM_P1;HPM_P2
2021/04/01 00:00:49;;;;;;;34.27;25.30;;;13.10;79.70;;;;;;6133852;23;20417;-81
2021/04/01 00:03:19;;;;;;;33.10;26.00;;;13.10;79.80;;;;;;6145433;23;20841;-81
2021/04/01 00:05:47;;;;;;;34.83;26.80;;;13.00;79.80;;;;;;6132928;23;20436;-81
2021/04/01 00:08:15;;;;;;;30.90;25.10;;;13.00;80.00;;;;;;6133602;23;20408;-81
2021/04/01 00:10:47;;;;;;;37.40;25.43;;;13.00;80.40;;;;;;6133954;23;20169;-81
2021/04/01 00:13:16;;;;;;;30.53;25.97;;;13.00;80.40;;;;;;6145175;23;20703;-81
2021/04/01 00:15:44;;;;;;;38.10;26.43;;;12.90;80.30;;;;;;6133443;23;20520;-81
2021/04/01 00:18:16;;;;;;;33.85;25.60;;;12.90;80.40;;;;;;6133046;23;20425;-81
2021/04/01 00:20:44;;;;;;;35.20;26.60;;;13.00;81.40;;;;;;6135025;23;20182;-81
2021/04/01 00:23:24;;;;;;;32.77;24.57;;;12.90;81.10;;;;;;6135246;23;20503;-82
2021/04/01 00:25:56;;;;;;;31.33;24.43;;;12.90;81.10;;;;;;6132865;23;20413;-82
2021/04/01 00:28:23;;;;;;;34.00;25.47;;;12.90;81.10;;;;;;6145094;23;20453;-82
2021/04/01 00:30:51;;;;;;;30.27;24.57;;;12.80;81.10;;;;;;6133007;23;20421;-82
2021/04/01 00:33:20;;;;;;;33.43;25.60;;;12.80;81.20;;;;;;6133198;23;20417;-82
2021/04/01 00:35:48;;;;;;;33.57;26.10;;;12.80;81.30;;;;;;6157582;23;20473;-82
2021/04/01 00:38:16;;;;;;;32.07;24.90;;;12.80;81.40;;;;;;6143448;23;20452;-81
2021/04/01 00:40:44;;;;;;;36.23;27.50;;;12.70;81.40;;;;;;6131856;23;20426;-81
2021/04/01 00:43:14;;;;;;;35.23;27.33;;;12.70;81.50;;;;;;6133345;23;20480;-81
2021/04/01 00:45:44;;;;;;;29.40;24.73;;;12.70;81.60;;;;;;6133783;23;20418;-81
2021/04/01 00:48:13;;;;;;;43.63;32.33;;;12.70;81.70;;;;;;6158120;23;20490;-81
2021/04/01 00:50:41;;;;;;;38.07;28.43;;;12.70;81.80;;;;;;6134034;23;20428;-81
2021/04/01 00:53:09;;;;;;;31.03;24.70;;;12.70;81.90;;;;;;6133768;23;20416;-81
2021/04/01 00:55:37;;;;;;;35.63;27.20;;;12.60;82.00;;;;;;6158147;23;20785;-81
2021/04/01 00:58:07;;;;;;;32.60;25.70;;;12.60;82.10;;;;;;6158239;23;20417;-81
2021/04/01 01:00:37;;;;;;;33.57;25.83;;;12.60;82.20;;;;;;6135778;23;20421;-81
2021/04/01 01:03:05;;;;;;;36.17;26.13;;;12.60;82.40;;;;;;6150046;23;20378;-81
2021/04/01 01:05:36;;;;;;;33.33;25.40;;;12.60;82.50;;;;;;6138372;23;20489;-81
2021/04/01 01:08:04;;;;;;;32.87;26.03;;;12.60;82.70;;;;;;6134281;23;20414;-81
2021/04/01 01:10:32;;;;;;;33.60;25.60;;;12.60;82.80;;;;;;6132502;23;20421;-81
2021/04/01 01:13:01;;;;;;;31.97;24.90;;;12.60;82.90;;;;;;6157481;23;20753;-81
2021/04/01 01:15:30;;;;;;;34.00;26.90;;;12.60;83.00;;;;;;6132531;23;20427;-81
2021/04/01 01:17:58;;;;;;;32.92;25.75;;;12.60;83.10;;;;;;6156396;23;20494;-81
2021/04/01 01:20:28;;;;;;;34.37;25.30;;;12.60;83.10;;;;;;6143640;23;20180;-81
2021/04/01 01:23:19;;;;;;;37.53;25.87;;;12.60;83.20;;;;;;6132270;23;20456;-81
2021/04/01 01:25:50;;;;;;;35.83;28.45;;;12.60;83.20;;;;;;6130826;23;20681;-81
2021/04/01 01:28:18;;;;;;;35.60;27.03;;;12.70;84.20;;;;;;6131833;23;20952;-81
2021/04/01 01:30:46;;;;;;;36.63;25.90;;;12.80;84.30;;;;;;6132368;23;20476;-81
2021/04/01 01:33:17;;;;;;;33.97;24.60;;;12.80;84.10;;;;;;6132765;23;20766;-81
2021/04/01 01:35:49;;;;;;;32.83;25.20;;;12.70;84.00;;;;;;6143932;23;20429;-81
2021/04/01 01:38:18;;;;;;;34.70;26.70;;;12.70;84.10;;;;;;6132592;23;20437;-81
2021/04/01 01:40:47;;;;;;;41.90;27.90;;;12.60;84.00;;;;;;6132265;23;20860;-81
2021/04/01 01:43:16;;;;;;;38.17;27.83;;;12.60;84.10;;;;;;6157505;23;20754;-81
2021/04/01 01:45:44;;;;;;;34.63;26.37;;;12.60;84.10;;;;;;6133579;23;20425;-81
2021/04/01 01:48:13;;;;;;;37.00;28.63;;;12.60;84.30;;;;;;6144149;23;20457;-81
2021/04/01 01:50:41;;;;;;;37.30;27.70;;;12.60;84.20;;;;;;6144432;23;20389;-81
2021/04/01 01:53:12;;;;;;;36.23;27.20;;;12.60;84.30;;;;;;6144250;23;20402;-81
2021/04/01 01:55:40;;;;;;;45.47;30.17;;;12.60;84.30;;;;;;6144394;23;20405;-81
2021/04/01 01:58:10;;;;;;;46.23;31.47;;;12.60;84.40;;;;;;6144025;23;20468;-81
2021/04/01 02:00:39;;;;;;;42.63;31.60;;;12.60;84.40;;;;;;6133132;23;20425;-81
2021/04/01 02:03:10;;;;;;;44.57;33.97;;;12.60;84.40;;;;;;6142845;23;20420;-81
2021/04/01 02:05:38;;;;;;;44.97;33.87;;;12.60;84.50;;;;;;6144811;23;20360;-81
2021/04/01 02:08:08;;;;;;;43.63;33.10;;;12.50;84.40;;;;;;6132425;23;20468;-81
2021/04/01 02:10:37;;;;;;;45.63;33.37;;;12.60;84.50;;;;;;6157512;23;20499;-81
2021/04/01 02:13:05;;;;;;;45.87;35.33;;;12.50;84.40;;;;;;6132703;23;20418;-81
2021/04/01 02:15:36;;;;;;;43.90;31.70;;;12.50;84.40;;;;;;6133234;23;20453;-81
2021/04/01 02:18:07;;;;;;;45.40;34.47;;;12.50;84.50;;;;;;6132442;23;20480;-81
2021/04/01 02:20:41;;;;;;;44.10;33.70;;;12.50;84.50;;;;;;6157326;23;20424;-81
2021/04/01 02:23:10;;;;;;;44.43;33.50;;;12.50;84.60;;;;;;6144604;23;20461;-81
2021/04/01 02:25:39;;;;;;;43.17;34.90;;;12.50;84.60;;;;;;6134070;23;20432;-81
2021/04/01 02:28:08;;;;;;;44.77;34.23;;;12.50;84.60;;;;;;6139103;23;20422;-81
2021/04/01 02:30:40;;;;;;;44.42;35.13;;;12.50;84.60;;;;;;6133600;23;20406;-81
2021/04/01 02:33:09;;;;;;;46.00;34.70;;;12.50;84.80;;;;;;6144434;23;20218;-81
2021/04/01 02:35:37;;;;;;;45.40;33.73;;;12.50;84.70;;;;;;6143719;23;20412;-81
2021/04/01 02:38:09;;;;;;;51.30;34.93;;;12.50;84.70;;;;;;6157387;23;20928;-81
2021/04/01 02:40:37;;;;;;;48.35;35.50;;;12.50;84.80;;;;;;6132740;23;20421;-81
2021/04/01 02:43:08;;;;;;;45.10;33.70;;;12.50;85.00;;;;;;6157453;23;20181;-81
2021/04/01 02:45:37;;;;;;;44.70;32.40;;;12.50;84.90;;;;;;6132542;23;20406;-81
2021/04/01 02:48:06;;;;;;;48.67;34.50;;;12.50;84.90;;;;;;6132847;23;20405;-81
2021/04/01 02:50:34;;;;;;;48.50;34.97;;;12.50;85.00;;;;;;6136430;23;20421;-81
2021/04/01 02:53:02;;;;;;;49.97;37.80;;;12.50;85.00;;;;;;6143356;23;20424;-81
2021/04/01 02:55:29;;;;;;;42.93;33.07;;;12.40;85.00;;;;;;6143823;23;20449;-81
2021/04/01 02:57:57;;;;;;;46.30;35.70;;;12.40;85.10;;;;;;6144087;23;20461;-81
2021/04/01 03:00:27;;;;;;;45.27;35.57;;;12.40;85.10;;;;;;6143613;23;20414;-81
2021/04/01 03:02:58;;;;;;;50.03;36.50;;;12.40;85.10;;;;;;6151144;23;20405;-81
2021/04/01 03:05:28;;;;;;;48.50;35.10;;;12.40;85.20;;;;;;6130621;23;20413;-81
2021/04/01 03:07:55;;;;;;;46.83;35.23;;;12.30;85.10;;;;;;6131226;23;20440;-81
2021/04/01 03:10:24;;;;;;;46.77;35.23;;;12.30;85.30;;;;;;6130653;23;20897;-81
2021/04/01 03:12:52;;;;;;;48.07;39.57;;;12.30;85.40;;;;;;6142300;23;20499;-81
2021/04/01 03:15:23;;;;;;;45.87;35.90;;;12.30;85.50;;;;;;6131986;23;20749;-81
2021/04/01 03:17:53;;;;;;;50.20;36.40;;;12.20;86.10;;;;;;6132142;23;20444;-81
2021/04/01 03:20:22;;;;;;;48.97;38.50;;;12.20;85.60;;;;;;6131758;23;20464;-81
2021/04/01 03:22:53;;;;;;;42.63;33.93;;;12.20;85.60;;;;;;6132295;23;20897;-81
2021/04/01 03:25:23;;;;;;;47.83;36.93;;;12.20;85.70;;;;;;6143729;23;20497;-81
2021/04/01 03:27:51;;;;;;;47.10;37.50;;;12.20;85.80;;;;;;6132101;23;20795;-81
2021/04/01 03:30:20;;;;;;;46.17;35.93;;;12.10;85.80;;;;;;6143273;23;20445;-81
2021/04/01 03:32:51;;;;;;;52.10;38.23;;;12.10;85.90;;;;;;6108095;23;20414;-81
2021/04/01 03:35:23;;;;;;;48.30;35.40;;;12.10;86.10;;;;;;6109297;23;20420;-81
2021/04/01 03:37:54;;;;;;;43.23;36.17;;;12.00;86.20;;;;;;6144613;23;20425;-81
2021/04/01 03:40:21;;;;;;;46.03;34.43;;;12.00;86.30;;;;;;6144024;23;20437;-81
2021/04/01 03:42:50;;;;;;;44.20;33.63;;;12.00;86.40;;;;;;6142806;23;20405;-81
2021/04/01 03:45:19;;;;;;;51.33;35.90;;;12.00;86.50;;;;;;6107517;23;20951;-81
2021/04/01 03:47:53;;;;;;;50.17;36.90;;;12.00;86.50;;;;;;6106950;23;20723;-81
2021/04/01 03:50:22;;;;;;;48.33;36.93;;;12.00;86.40;;;;;;6130946;23;20421;-81
2021/04/01 03:52:49;;;;;;;47.43;35.37;;;12.00;86.30;;;;;;6142995;23;20410;-81
2021/04/01 03:55:27;;;;;;;55.15;40.03;;;12.00;86.30;;;;;;6131165;23;20457;-81
2021/04/01 03:58:03;;;;;;;52.77;38.57;;;12.00;86.00;;;;;;6130925;23;20192;-81
2021/04/01 04:00:33;;;;;;;52.43;36.83;;;12.00;85.70;;;;;;6107179;23;20413;-81
2021/04/01 04:03:12;;;;;;;50.90;37.13;;;12.00;85.60;;;;;;6108070;23;20417;-81
2021/04/01 04:05:48;;;;;;;53.80;40.30;;;12.00;85.50;;;;;;6142758;23;20377;-81
2021/04/01 04:13:49;;;;;;;56.80;40.53;;;12.10;85.70;;;;;;6103416;23;20550;-81
2021/04/01 04:16:17;;;;;;;49.53;36.37;;;12.10;84.90;;;;;;6108432;23;20413;-81
2021/04/01 04:18:45;;;;;;;53.10;36.93;;;12.10;84.80;;;;;;6108039;23;20851;-81
2021/04/01 04:21:17;;;;;;;51.20;36.60;;;12.10;84.60;;;;;;6108732;23;20421;-81
2021/04/01 04:23:47;;;;;;;55.43;38.87;;;12.10;84.50;;;;;;6144400;23;20440;-81
2021/04/01 04:26:15;;;;;;;55.27;40.83;;;12.10;84.40;;;;;;6143622;23;20428;-81
2021/04/01 04:28:43;;;;;;;53.77;38.53;;;12.10;84.20;;;;;;6108725;23;20505;-81
2021/04/01 04:31:11;;;;;;;53.47;36.87;;;12.10;84.00;;;;;;6107894;23;20417;-81
2021/04/01 04:33:39;;;;;;;54.20;40.40;;;12.10;83.70;;;;;;6108483;23;20414;-81
2021/04/01 04:36:11;;;;;;;52.57;38.37;;;12.10;83.50;;;;;;6132639;23;20425;-81
2021/04/01 04:38:39;;;;;;;56.63;38.40;;;12.10;83.40;;;;;;6132491;23;20448;-81
2021/04/01 04:41:07;;;;;;;54.90;39.30;;;12.10;83.30;;;;;;6108877;23;20418;-81
2021/04/01 04:43:35;;;;;;;54.63;38.40;;;12.10;83.20;;;;;;6108567;23;20387;-81
2021/04/01 04:46:03;;;;;;;53.93;40.00;;;12.10;83.10;;;;;;6108216;23;20409;-81
2021/04/01 04:48:30;;;;;;;52.70;38.27;;;12.10;83.00;;;;;;6132890;23;20437;-81
2021/04/01 04:50:58;;;;;;;57.87;40.23;;;12.00;82.80;;;;;;6108273;23;20406;-81
2021/04/01 04:53:25;;;;;;;56.30;38.43;;;12.10;82.90;;;;;;6108808;23;20417;-81
2021/04/01 04:56:03;;;;;;;53.40;39.00;;;12.10;82.80;;;;;;6133591;23;20421;-81
2021/04/01 04:58:35;;;;;;;60.67;41.37;;;12.00;82.60;;;;;;6108428;23;20528;-81
2021/04/01 05:01:05;;;;;;;62.63;41.90;;;12.00;82.60;;;;;;6109089;23;20745;-81
2021/04/01 05:06:31;;;;;;;60.33;40.83;;;12.10;82.20;;;;;;6109303;23;20384;-81
2021/04/01 05:08:59;;;;;;;58.07;39.77;;;12.10;82.20;;;;;;6133070;23;20441;-81
2021/04/01 05:11:27;;;;;;;61.03;43.38;;;12.10;82.20;;;;;;6109179;23;20528;-81
2021/04/01 05:13:54;;;;;;;64.77;42.27;;;12.00;82.10;;;;;;6144946;23;20169;-81
2021/04/01 05:16:22;;;;;;;60.90;43.03;;;12.00;82.10;;;;;;6109073;23;20421;-81
2021/04/01 05:18:49;;;;;;;62.97;42.67;;;12.00;82.20;;;;;;6107404;23;20936;-81
2021/04/01 05:21:18;;;;;;;58.60;40.97;;;12.00;82.20;;;;;;6107319;23;20417;-81
2021/04/01 05:23:47;;;;;;;61.20;42.27;;;11.90;82.20;;;;;;6107631;23;20425;-81
2021/04/01 05:29:16;;;;;;;67.77;44.83;;;11.90;82.30;;;;;;6144389;23;20417;-79
2021/04/01 05:31:43;;;;;;;63.43;44.17;;;11.80;82.40;;;;;;6144112;23;20385;-79
2021/04/01 05:34:11;;;;;;;69.73;47.13;;;11.80;82.50;;;;;;6107028;23;20453;-81
2021/04/01 05:36:40;;;;;;;69.03;48.60;;;11.80;82.80;;;;;;6107961;23;20441;-80
2021/04/01 05:39:11;;;;;;;66.67;46.80;;;11.70;82.80;;;;;;6107951;23;20441;-79
2021/04/01 05:41:39;;;;;;;72.83;48.77;;;11.70;83.10;;;;;;6108255;23;20417;-80
2021/04/01 05:44:15;;;;;;;74.93;49.07;;;11.70;83.30;;;;;;6107501;23;20887;-80
2021/04/01 05:46:51;;;;;;;75.10;52.00;;;11.60;83.40;;;;;;6107125;23;20409;-80
2021/04/01 05:49:33;;;;;;;79.10;51.87;;;11.60;83.60;;;;;;6131291;23;20488;-79
2021/04/01 05:58:01;;;;;;;84.93;57.00;;;11.50;84.30;;;;;;6107097;23;20465;-79
2021/04/01 06:00:51;;;;;;;81.17;55.27;;;11.50;84.70;;;;;;6132517;23;20870;-81
2021/04/01 06:03:37;;;;;;;88.30;59.60;;;11.40;84.80;;;;;;6132802;23;20408;-80
2021/04/01 06:06:07;;;;;;;90.93;61.97;;;11.40;85.10;;;;;;6108117;23;20445;-80
2021/04/01 06:08:40;;;;;;;84.10;59.57;;;11.40;85.50;;;;;;6107638;23;20461;-79
2021/04/01 06:11:08;;;;;;;94.57;61.30;;;11.30;85.50;;;;;;6145270;23;20709;-80
2021/04/01 06:13:45;;;;;;;91.93;60.37;;;11.30;85.80;;;;;;6144419;23;20461;-81
2021/04/01 06:16:13;;;;;;;90.70;61.03;;;11.30;86.10;;;;;;6108132;23;20416;-80
2021/04/01 06:18:50;;;;;;;89.03;57.50;;;11.20;86.30;;;;;;6107775;23;20953;-80
2021/04/01 06:21:25;;;;;;;92.50;61.38;;;11.20;86.70;;;;;;6130792;23;20469;-80
2021/04/01 06:23:58;;;;;;;89.80;57.13;;;11.30;88.20;;;;;;6106486;23;20177;-80
2021/04/01 06:26:32;;;;;;;98.67;62.17;;;11.40;88.10;;;;;;6142563;23;20477;-80
2021/04/01 06:29:03;;;;;;;103.87;64.30;;;11.30;88.10;;;;;;6107155;23;20433;-80
2021/04/01 06:31:40;;;;;;;94.63;62.50;;;11.30;88.40;;;;;;6106824;23;20443;-80
2021/04/01 06:34:08;;;;;;;97.30;67.77;;;11.20;88.70;;;;;;6108049;23;20476;-80
2021/04/01 06:36:47;;;;;;;98.70;66.10;;;11.10;89.00;;;;;;6143869;23;20420;-81
2021/04/01 06:39:19;;;;;;;107.10;69.57;;;11.10;89.60;;;;;;6107115;23;20447;-80
2021/04/01 06:41:46;;;;;;;104.30;71.00;;;11.00;89.80;;;;;;6107518;23;20881;-80
2021/04/01 06:44:26;;;;;;;100.97;72.73;;;10.90;90.10;;;;;;6107503;23;20425;-80
2021/04/01 06:47:08;;;;;;;101.43;69.90;;;10.90;90.30;;;;;;6132435;23;20410;-80
2021/04/01 06:50:01;;;;;;;103.10;70.27;;;10.90;90.60;;;;;;6144258;23;20413;-80
2021/04/01 06:52:35;;;;;;;99.43;70.17;;;10.80;90.80;;;;;;6109140;23;20441;-80
2021/04/01 06:55:17;;;;;;;101.93;69.17;;;10.80;90.90;;;;;;6108797;23;20405;-81
2021/04/01 06:58:01;;;;;;;96.77;69.27;;;10.80;91.10;;;;;;6108164;23;20435;-81
2021/04/01 07:00:38;;;;;;;89.40;63.10;;;10.80;91.30;;;;;;6132773;23;20409;-80
2021/04/01 07:03:19;;;;;;;91.40;61.00;;;10.80;91.40;;;;;;6143772;23;20390;-79
2021/04/01 07:05:51;;;;;;;81.07;59.40;;;10.80;91.70;;;;;;6108812;23;20419;-80
2021/04/01 07:08:24;;;;;;;82.53;55.77;;;10.90;91.90;;;;;;6108742;23;20437;-80
2021/04/01 07:10:59;;;;;;;76.13;54.50;;;10.90;91.90;;;;;;6132861;23;20409;-80
2021/04/01 07:13:31;;;;;;;82.00;54.30;;;10.90;92.00;;;;;;6133109;23;20421;-79
2021/04/01 07:16:22;;;;;;;74.60;50.77;;;10.90;92.10;;;;;;6108343;23;20412;-79
2021/04/01 07:35:57;;;;;;;38.80;25.87;;;11.00;93.10;;;;;;6109344;23;20472;-80
2021/04/01 07:47:00;;;;;;;21.30;13.90;;;11.20;94.00;;;;;;6110704;23;20413;-79
2021/04/01 07:49:31;;;;;;;13.10;9.85;;;11.20;94.00;;;;;;6143445;23;20425;-79
2021/04/01 07:52:06;;;;;;;14.37;6.60;;;11.30;94.50;;;;;;6109488;23;20170;-79
2021/04/01 07:54:50;;;;;;;10.30;3.93;;;11.40;94.10;;;;;;6133886;23;20417;-79
2021/04/01 07:57:32;;;;;;;10.57;4.30;;;11.60;93.80;;;;;;6144709;23;20494;-79
2021/04/01 08:00:09;;;;;;;14.13;4.50;;;11.70;93.80;;;;;;6134455;23;20468;-80
2021/04/01 08:05:24;;;;;;;10.37;3.97;;;12.00;93.70;;;;;;6110153;23;20439;-80
2021/04/01 08:07:57;;;;;;;13.27;6.03;;;12.10;93.50;;;;;;6109667;23;20412;-80
2021/04/01 08:10:29;;;;;;;9.60;3.70;;;12.10;93.50;;;;;;6110176;23;20477;-80
2021/04/01 08:13:05;;;;;;;8.80;3.67;;;12.20;93.40;;;;;;6147163;23;20385;-80
2021/04/01 08:15:39;;;;;;;15.33;3.53;;;12.20;93.30;;;;;;6109860;23;20503;-80
2021/04/01 08:18:16;;;;;;;10.33;3.47;;;12.10;93.30;;;;;;6109832;23;20520;-80
2021/04/01 08:20:46;;;;;;;10.87;3.20;;;12.00;93.30;;;;;;6146100;23;20481;-80
2021/04/01 08:23:35;;;;;;;13.83;4.60;;;12.00;93.40;;;;;;6144866;23;20445;-80
2021/04/01 08:26:38;;;;;;;9.50;3.70;;;11.80;93.40;;;;;;6133653;23;20480;-80
2021/04/01 08:30:39;;;;;;;14.07;5.23;;;11.70;93.50;;;;;;6161003;23;20964;-81
2021/04/01 08:33:20;;;;;;;12.03;4.57;;;11.70;93.70;;;;;;6133990;23;20416;-80
2021/04/01 08:36:10;;;;;;;12.00;3.97;;;11.70;93.70;;;;;;6132885;23;20892;-80
2021/04/01 08:38:58;;;;;;;16.33;4.47;;;11.80;93.80;;;;;;6133345;23;20452;-80
2021/04/01 08:42:29;;;;;;;9.73;4.60;;;11.80;93.80;;;;;;6157198;23;20409;-80
2021/04/01 08:45:38;;;;;;;11.77;5.20;;;11.80;93.80;;;;;;6096407;23;20441;-80
2021/04/01 08:48:31;;;;;;;11.73;4.70;;;11.70;94.10;;;;;;6156959;23;20433;-80
2021/04/01 08:51:11;;;;;;;9.27;4.10;;;11.60;94.00;;;;;;6133524;23;20873;-80
2021/04/01 08:53:56;;;;;;;18.13;6.10;;;11.60;94.10;;;;;;6132902;23;20425;-80
2021/04/01 08:56:31;;;;;;;10.30;4.80;;;11.70;94.10;;;;;;6157742;23;20923;-80
2021/04/01 08:59:06;;;;;;;11.65;4.85;;;11.80;94.10;;;;;;6131968;23;20802;-80
2021/04/01 09:01:39;;;;;;;7.50;4.03;;;12.10;94.50;;;;;;6157363;23;20252;-80
2021/04/01 09:04:07;;;;;;;11.50;5.43;;;12.20;94.30;;;;;;6132607;23;20413;-80
2021/04/01 09:06:37;;;;;;;6.77;4.33;;;12.20;94.40;;;;;;6157097;23;20904;-80
2021/04/01 09:09:10;;;;;;;9.50;4.33;;;12.20;94.30;;;;;;6144701;23;20468;-80
2021/04/01 09:11:45;;;;;;;9.60;4.47;;;12.20;94.30;;;;;;6159612;23;20425;-80
2021/04/01 09:14:28;;;;;;;11.00;4.77;;;12.10;94.30;;;;;;6133859;23;20428;-80
2021/04/01 09:17:04;;;;;;;7.80;4.60;;;12.20;94.40;;;;;;6157728;23;20410;-80
2021/04/01 09:19:32;;;;;;;13.17;4.60;;;12.10;94.40;;;;;;6133668;23;20429;-80
2021/04/01 09:22:00;;;;;;;9.40;5.50;;;12.10;94.40;;;;;;6133033;23;20524;-79
2021/04/01 09:24:29;;;;;;;10.23;4.10;;;12.00;94.40;;;;;;6129878;23;20424;-78
2021/04/01 09:26:56;;;;;;;8.20;3.73;;;12.00;94.50;;;;;;6107946;23;20816;-78
2021/04/01 09:29:25;;;;;;;7.53;3.10;;;11.90;94.50;;;;;;6105937;23;20440;-80
2021/04/01 09:31:55;;;;;;;5.20;2.87;;;11.90;94.50;;;;;;6142562;23;20468;-80
2021/04/01 09:34:25;;;;;;;7.03;2.83;;;11.90;94.50;;;;;;6143506;23;20382;-80
2021/04/01 09:36:54;;;;;;;7.70;3.10;;;12.00;94.50;;;;;;6143102;23;20477;-80
2021/04/01 09:39:32;;;;;;;6.60;3.30;;;12.00;94.40;;;;;;6131732;23;20418;-80
2021/04/01 09:42:08;;;;;;;5.00;2.77;;;12.00;94.40;;;;;;6131244;23;20893;-80
2021/04/01 09:44:48;;;;;;;5.67;2.73;;;12.10;94.50;;;;;;6128626;23;20413;-80
2021/04/01 09:47:23;;;;;;;4.93;2.40;;;12.10;94.50;;;;;;6128766;23;20440;-78
2021/04/01 09:49:57;;;;;;;8.93;2.90;;;12.00;94.40;;;;;;6104750;23;20437;-79
2021/04/01 09:52:29;;;;;;;6.67;2.07;;;12.00;94.30;;;;;;6106053;23;20885;-79
2021/04/01 09:54:58;;;;;;;7.10;2.60;;;12.00;94.30;;;;;;6107774;23;20409;-79
2021/04/01 09:57:38;;;;;;;5.30;2.47;;;12.00;94.30;;;;;;6141035;23;20445;-79
2021/04/01 10:00:15;;;;;;;6.23;2.10;;;12.10;94.40;;;;;;6140858;23;20459;-79
2021/04/01 10:02:50;;;;;;;5.80;2.33;;;12.10;94.30;;;;;;6131001;23;20793;-78
2021/04/01 10:05:22;;;;;;;7.70;2.60;;;12.10;94.30;;;;;;6143191;23;20377;-80
2021/04/01 10:07:56;;;;;;;8.83;2.20;;;12.00;94.20;;;;;;6107421;23;20464;-80
2021/04/01 10:10:37;;;;;;;5.70;2.30;;;12.00;94.20;;;;;;6109799;23;20421;-80
2021/04/01 10:13:23;;;;;;;7.10;2.33;;;12.00;94.10;;;;;;6133181;23;20417;-79
2021/04/01 10:15:55;;;;;;;4.97;2.00;;;12.00;94.00;;;;;;6106283;23;20409;-79
2021/04/01 10:18:28;;;;;;;2.47;1.90;;;12.00;94.00;;;;;;6143112;23;20407;-79
2021/04/01 10:21:01;;;;;;;3.20;1.83;;;12.00;93.90;;;;;;6132554;23;20173;-79
2021/04/01 10:23:28;;;;;;;4.77;1.97;;;12.00;93.80;;;;;;6107986;23;20414;-80
2021/04/01 10:26:07;;;;;;;3.60;1.87;;;12.00;94.10;;;;;;6142536;23;20715;-80
2021/04/01 10:28:42;;;;;;;4.53;2.60;;;12.00;93.70;;;;;;6107721;23;20418;-79
2021/04/01 10:31:15;;;;;;;4.80;2.47;;;12.10;93.80;;;;;;6131462;23;20165;-79
2021/04/01 10:34:07;;;;;;;5.83;2.20;;;12.00;93.60;;;;;;6106623;23;20838;-79
2021/04/01 10:36:41;;;;;;;4.63;2.63;;;11.90;93.60;;;;;;6089033;23;20472;-79
2021/04/01 10:39:09;;;;;;;5.10;2.37;;;11.80;93.50;;;;;;6131654;23;20504;-79
2021/04/01 10:41:47;;;;;;;4.83;1.97;;;11.80;93.60;;;;;;6143981;23;20410;-79
2021/04/01 10:44:16;;;;;;;7.67;2.40;;;11.90;93.60;;;;;;6131294;23;20417;-79
2021/04/01 10:46:49;;;;;;;3.70;2.13;;;11.90;93.50;;;;;;6132592;23;20401;-79
2021/04/01 10:49:22;;;;;;;3.10;1.60;;;11.90;93.40;;;;;;6130457;23;20464;-79
2021/04/01 10:51:52;;;;;;;2.77;2.30;;;11.90;93.30;;;;;;6107101;23;20413;-79
2021/04/01 10:54:24;;;;;;;3.90;2.03;;;11.90;93.30;;;;;;6142565;23;20754;-79
2021/04/01 10:56:54;;;;;;;5.60;1.90;;;11.90;93.30;;;;;;6131174;23;20500;-79
2021/04/01 10:59:37;;;;;;;2.70;2.17;;;11.90;93.20;;;;;;6131063;23;20453;-80
2021/04/01 11:02:11;;;;;;;4.53;1.77;;;11.90;93.10;;;;;;6108830;23;20873;-79
2021/04/01 11:04:40;;;;;;;2.47;2.23;;;11.90;93.10;;;;;;6108687;23;20406;-79
2021/04/01 11:07:08;;;;;;;3.10;1.80;;;11.90;93.10;;;;;;6143508;23;20729;-79
2021/04/01 11:09:39;;;;;;;4.23;2.77;;;11.80;92.90;;;;;;6107402;23;20441;-79
2021/04/01 11:12:15;;;;;;;6.40;2.90;;;11.70;92.80;;;;;;6143044;23;20389;-79
2021/04/01 11:14:44;;;;;;;3.20;2.23;;;11.60;92.80;;;;;;6108986;23;20420;-79
2021/04/01 11:17:15;;;;;;;6.67;2.90;;;11.50;92.70;;;;;;6106221;23;20919;-79
2021/04/01 11:19:44;;;;;;;5.23;2.30;;;11.40;92.70;;;;;;6112925;23;20437;-79
2021/04/01 11:22:12;;;;;;;6.90;2.40;;;11.30;92.80;;;;;;6154962;23;20405;-79
2021/04/01 11:24:39;;;;;;;4.70;1.87;;;11.20;92.80;;;;;;6121277;23;20436;-79
2021/04/01 11:27:09;;;;;;;4.77;2.60;;;11.20;92.70;;;;;;6156368;23;20432;-79
2021/04/01 11:29:37;;;;;;;3.30;2.67;;;11.20;92.50;;;;;;6144265;23;20473;-79
2021/04/01 11:32:26;;;;;;;3.00;1.70;;;11.20;92.50;;;;;;6166718;23;20416;-79
2021/04/01 11:34:55;;;;;;;4.20;2.07;;;11.20;92.40;;;;;;6124242;23;20426;-79
2021/04/01 11:37:25;;;;;;;3.93;1.63;;;11.20;92.30;;;;;;6130145;23;20488;-79
2021/04/01 11:39:57;;;;;;;4.53;2.17;;;11.20;92.20;;;;;;6154838;23;20972;-79
2021/04/01 11:42:25;;;;;;;3.50;1.63;;;11.20;92.00;;;;;;6132452;23;20417;-79
2021/04/01 11:44:56;;;;;;;2.90;1.60;;;11.10;92.00;;;;;;6139594;23;20409;-79
2021/04/01 11:47:29;;;;;;;3.63;1.80;;;11.20;91.70;;;;;;6131654;23;20589;-79
2021/04/01 11:49:57;;;;;;;4.07;1.60;;;11.10;91.70;;;;;;6156728;23;20499;-79
2021/04/01 11:52:25;;;;;;;2.57;2.00;;;11.10;91.80;;;;;;6142421;23;20393;-79
2021/04/01 11:54:54;;;;;;;3.17;2.00;;;11.00;91.80;;;;;;6131696;23;20512;-80
2021/04/01 11:57:25;;;;;;;5.20;1.97;;;10.90;91.90;;;;;;6131338;23;20738;-79
2021/04/01 11:59:57;;;;;;;4.33;2.40;;;10.80;92.00;;;;;;6143513;23;20420;-79
2021/04/01 12:02:27;;;;;;;5.50;2.20;;;10.80;92.20;;;;;;6157465;23;20414;-79
2021/04/01 12:04:57;;;;;;;4.20;2.07;;;10.80;92.50;;;;;;6132936;23;20409;-79
2021/04/01 12:07:25;;;;;;;6.27;4.40;;;10.80;92.00;;;;;;6133712;23;20421;-79
2021/04/01 12:09:53;;;;;;;3.07;2.20;;;10.70;92.20;;;;;;6131391;23;20429;-79
2021/04/01 12:12:28;;;;;;;3.93;2.13;;;10.70;92.30;;;;;;6143071;23;20448;-79
2021/04/01 12:14:56;;;;;;;4.77;2.90;;;10.70;92.30;;;;;;6157060;23;20478;-79
2021/04/01 12:17:32;;;;;;;3.30;2.27;;;10.60;92.30;;;;;;6132594;23;20486;-79
2021/04/01 12:20:01;;;;;;;4.90;2.00;;;10.60;92.40;;;;;;6130961;23;20489;-79
2021/04/01 12:22:33;;;;;;;3.20;2.50;;;10.60;92.50;;;;;;6143519;23;20397;-79
2021/04/01 12:25:01;;;;;;;7.10;2.67;;;10.70;92.50;;;;;;6130383;23;20428;-79
2021/04/01 12:27:30;;;;;;;2.93;2.37;;;10.70;92.50;;;;;;6133654;23;20416;-79
2021/04/01 12:29:57;;;;;;;4.93;2.23;;;10.70;92.70;;;;;;6146355;23;20412;-80
2021/04/01 12:32:26;;;;;;;3.70;1.87;;;10.70;92.40;;;;;;6134193;23;20421;-79
2021/04/01 12:35:09;;;;;;;6.97;1.83;;;10.70;92.50;;;;;;6156982;23;20428;-80
2021/04/01 12:37:37;;;;;;;2.30;1.80;;;10.70;92.60;;;;;;6131916;23;20873;-79
2021/04/01 12:40:15;;;;;;;3.30;1.73;;;10.70;92.50;;;;;;6131443;23;20941;-79
2021/04/01 12:42:43;;;;;;;3.30;2.20;;;10.80;92.50;;;;;;6154707;23;20420;-78
2021/04/01 12:45:28;;;;;;;6.17;1.93;;;10.80;92.40;;;;;;6130055;23;20746;-78
2021/04/01 12:48:07;;;;;;;2.77;2.00;;;10.80;92.20;;;;;;6129256;23;20413;-79
2021/04/01 12:50:38;;;;;;;3.30;2.33;;;10.70;92.20;;;;;;6142810;23;20404;-79
2021/04/01 12:53:06;;;;;;;6.27;2.33;;;10.70;92.20;;;;;;6154228;23;20417;-79
2021/04/01 12:55:43;;;;;;;2.83;2.20;;;10.70;92.20;;;;;;6153708;23;20444;-79
2021/04/01 12:58:31;;;;;;;6.17;3.50;;;10.70;92.30;;;;;;6128464;23;20443;-79
2021/04/01 13:01:12;;;;;;;4.10;2.60;;;10.70;92.40;;;;;;6137675;23;20897;-79
2021/04/01 13:03:39;;;;;;;4.23;2.30;;;10.80;92.50;;;;;;6139109;23;20162;-79
2021/04/01 13:06:09;;;;;;;3.97;2.43;;;10.80;92.40;;;;;;6129083;23;20434;-79
2021/04/01 13:11:18;;;;;;;2.97;2.33;;;10.60;92.60;;;;;;6154516;23;20421;-79
2021/04/01 13:13:45;;;;;;;5.10;2.33;;;10.50;92.70;;;;;;6129201;23;20413;-79
2021/04/01 13:16:14;;;;;;;3.97;2.63;;;10.50;92.90;;;;;;6156181;23;20971;-79
2021/04/01 13:18:42;;;;;;;2.93;2.57;;;10.50;92.90;;;;;;6131645;23;20447;-79
2021/04/01 13:21:29;;;;;;;3.30;2.60;;;10.50;93.00;;;;;;6131171;23;20413;-79
2021/04/01 13:24:05;;;;;;;3.77;2.73;;;10.50;93.00;;;;;;6141097;23;20389;-79
2021/04/01 13:26:33;;;;;;;4.30;2.37;;;10.50;93.10;;;;;;6130349;23;20448;-79
2021/04/01 13:29:02;;;;;;;3.23;2.50;;;10.50;93.10;;;;;;6132312;23;20444;-79
2021/04/01 13:31:38;;;;;;;3.40;2.50;;;10.40;93.10;;;;;;6156779;23;20409;-79
2021/04/01 13:34:09;;;;;;;6.73;2.73;;;10.40;93.20;;;;;;6155326;23;20424;-79
2021/04/01 13:36:42;;;;;;;5.57;3.23;;;10.40;93.30;;;;;;6131240;23;20432;-79
2021/04/01 13:39:11;;;;;;;5.20;2.50;;;10.40;93.30;;;;;;6133230;23;20445;-79
2021/04/01 13:41:54;;;;;;;7.07;3.23;;;10.40;93.30;;;;;;6132598;23;20440;-79
2021/04/01 13:44:26;;;;;;;4.30;2.67;;;10.40;93.40;;;;;;6132386;23;20421;-79
2021/04/01 13:46:55;;;;;;;4.97;3.00;;;10.30;93.40;;;;;;6132339;23;20813;-79
2021/04/01 13:49:25;;;;;;;5.27;2.70;;;10.20;93.40;;;;;;6128927;23;20488;-79
2021/04/01 13:51:57;;;;;;;5.23;3.30;;;10.20;93.60;;;;;;6140318;23;20382;-79